Palmyra, Wisconsin
Current Conditions -  °F | °C
As of 9:15 PM on Saturday 22 Nov 2014 (Local Time) from KBUU Reporting Station
Scattered Clouds Scattered Clouds  
Wind Chill: 40°   Ceiling: Unl
Heat Index: 46°   Visibility: 10mi
Dew Point: 44°   Wind: 12mph
Humidity: 95%   Direction: 210°SSW
Pressure: 29.81"   Gusts: 16mph
Location:  42.88°N, 88.59°W
Report Text: KBUU 230315Z AUTO 21010G14KT 10SM SCT025 SCT032 SCT045 08/07 A2981 RMK AO2 T00750067
Loading
Personal Weather Stations






























Interactive Weather Map New forecast layout! Learn more

10-Day Weather Forecast

Advertisements
Track Severe Weather on mobile